Home > Products > Valid Products > MTR

000
SAUS41 KBOX 312257
MTRMQE
METAR KMQE 312254Z AUTO 18014G23KT 23/13 A3011 RMK AO1 SLP205
T02280133





000
SAUS41 KBOX 312157
MTRMQE
METAR KMQE 312154Z AUTO 19015G25KT 24/14 A3010 RMK AO1 SLP199
T02390139





000
SAUS41 KBOX 312057
MTRMQE
METAR KMQE 312054Z AUTO 18013G24KT 25/14 A3009 RMK AO1 SLP196
T02500144 56003





000
SAUS41 KBOX 311957
MTRMQE
METAR KMQE 311954Z AUTO 20011G21KT 160V220 26/14 A3009 RMK AO1
SLP196 T02610144





000
SAUS41 KBOX 311856
MTRMQE
METAR KMQE 311854Z AUTO 18016G21KT 26/15 A3009 RMK AO1 SLP196
T02610150





000
SAUS41 KBOX 311755
MTRMQE
METAR KMQE 311754Z AUTO 19009G18KT 26/16 A3010 RMK AO1 SLP199
T02560156 10261 20189 58004





000
SAUS41 KBOX 311655
MTRMQE
METAR KMQE 311654Z AUTO 20008G18KT 25/15 A3010 RMK AO1 SLP201
T02500150





000
SAUS41 KBOX 311557
MTRMQE
METAR KMQE 311554Z AUTO 21012G17KT 26/15 A3011 RMK AO1 SLP202
T02610150





000
SAUS41 KBOX 311455
MTRMQE
METAR KMQE 311454Z AUTO 20008G15KT 24/14 A3011 RMK AO1 SLP203
T02440144 55000





000
SAUS41 KBOX 311355
MTRMQE
METAR KMQE 311354Z AUTO VRB06KT 23/16 A3011 RMK AO1 SLP202 T02280161





000
SAUS41 KBOX 311259
MTRMQE
METAR KMQE 311254Z AUTO 20005KT 21/17 A3011 RMK AO1 SLP202 T02110167





000
SAUS41 KBOX 311155
MTRMQE
METAR KMQE 311154Z AUTO 20006KT 19/16 A3011 RMK AO1 SLP204 T01890156
10189 20161 51012





000
SAUS41 KBOX 311055
MTRMQE
METAR KMQE 311054Z AUTO 21007KT 17/15 A3010 RMK AO1 SLP201 T01670150





000
SAUS41 KBOX 310955
MTRMQE
METAR KMQE 310954Z AUTO 22009KT 17/14 A3008 RMK AO1 SLP195 T01670144





000
SAUS41 KBOX 310855
MTRMQE
METAR KMQE 310854Z AUTO 24009KT 17/14 A3007 RMK AO1 SLP191 T01670139
53005





000
SAUS41 KBOX 310755
MTRMQE
METAR KMQE 310754Z AUTO 24009KT 16/13 A3007 RMK AO1 SLP189 T01610133





000
SAUS41 KBOX 310655
MTRMQE
METAR KMQE 310654Z AUTO 24009KT 16/13 A3006 RMK AO1 SLP185 T01610128





000
SAUS41 KBOX 310555
MTRMQE
METAR KMQE 310554Z AUTO 23009KT 17/12 A3006 RMK AO1 SLP185 T01720122
10211 20172 52002





000
SAUS41 KBOX 310455
MTRMQE
METAR KMQE 310454Z AUTO 23010KT 18/12 A3005 RMK AO1 SLP184 T01780122
402500150





000
SAUS41 KBOX 310355
MTRMQE
METAR KMQE 310354Z AUTO 23009KT 18/12 A3005 RMK AO1 SLP184 T01780122





000
SAUS41 KBOX 310355
MTRMQE
METAR KMQE 310354Z AUTO 23009KT 18/12 A3005 RMK AO1 SLP184 T01780122





000
SAUS41 KBOX 310255
MTRMQE
METAR KMQE 310254Z AUTO 22010KT 18/12 A3005 RMK AO1 SLP184 T01830122
51012





000
SAUS41 KBOX 310155
MTRMQE
METAR KMQE 310154Z AUTO 20009KT 19/12 A3005 RMK AO1 SLP182 T01940122





000
SAUS41 KBOX 310055
MTRMQE
METAR KMQE 310054Z AUTO 20009KT 20/13 A3003 RMK AO1 SLP178 T02000128





000
SAUS41 KBOX 302355
MTRMQE
METAR KMQE 302354Z AUTO 19007KT 21/12 A3002 RMK AO1 SLP173 T02110122
10250 20211 53008





000
SAUS41 KBOX 302255
MTRMQE
METAR KMQE 302254Z AUTO VRB04KT 23/11 A3001 RMK AO1 SLP170 T02330106





000
SAUS41 KBOX 302155
MTRMQE
METAR KMQE 302154Z AUTO 28008KT 24/11 A3000 RMK AO1 SLP166 T02390111





000
SAUS41 KBOX 302055
MTRMQE
METAR KMQE 302054Z AUTO 26006KT 24/11 A2999 RMK AO1 SLP164 T02440111
55000





000
SAUS41 KBOX 301955
MTRMQE
METAR KMQE 301954Z AUTO 27010KT 24/11 A2999 RMK AO1 SLP162 T02440111





000
SAUS41 KBOX 301855
MTRMQE
METAR KMQE 301854Z AUTO 24009KT 25/11 A2999 RMK AO1 SLP163 T02500111





000
SAUS41 KBOX 301755
MTRMQE
METAR KMQE 301754Z AUTO VRB06KT 24/12 A2999 RMK AO1 SLP164 T02390117
10244 20167 58006





000
SAUS41 KBOX 301655
MTRMQE
METAR KMQE 301654Z AUTO 24004KT 23/11 A3000 RMK AO1 SLP167 T02330111





000
SAUS41 KBOX 301555
MTRMQE
METAR KMQE 301554Z AUTO VRB06KT 23/12 A3001 RMK AO1 SLP169 T02330117





000
SAUS41 KBOX 301455
MTRMQE
METAR KMQE 301454Z AUTO 25008KT 22/12 A3001 RMK AO1 SLP170 T02220117
52001





000
SAUS41 KBOX 301355
MTRMQE
METAR KMQE 301354Z AUTO 23006KT 22/13 A3001 RMK AO1 SLP169 T02170133





000
SAUS41 KBOX 301255
MTRMQE
METAR KMQE 301254Z AUTO VRB03KT 19/14 A3001 RMK AO1 SLP169 T01940139





000
SAUS41 KBOX 301155
MTRMQE
METAR KMQE 301154Z AUTO 31003KT 17/14 A3001 RMK AO1 SLP169 T01670139
10172 20150 51013





000
SAUS41 KBOX 301056
MTRMQE
METAR KMQE 301054Z AUTO 31004KT 16/13 A3000 RMK AO1 SLP167 T01560133





000
SAUS41 KBOX 300955
MTRMQE
METAR KMQE 300954Z AUTO 33006KT 16/12 A2998 RMK AO1 SLP159 T01610122





000
SAUS41 KBOX 300855
MTRMQE
METAR KMQE 300854Z AUTO 31005KT 16/12 A2997 RMK AO1 SLP156 T01560122
53002





000
SAUS41 KBOX 300755
MTRMQE
METAR KMQE 300754Z AUTO 30007KT 16/12 A2995 RMK AO1 SLP151 T01560122





000
SAUS41 KBOX 300655
MTRMQE
METAR KMQE 300654Z AUTO 29007KT 17/12 A2996 RMK AO1 SLP150 T01720117





000
SAUS41 KBOX 300555
MTRMQE
METAR KMQE 300554Z AUTO 26005KT 16/12 A2996 RMK AO1 SLP153 T01610122
10200 20161 50007





000
SAUS41 KBOX 300455
MTRMQE
METAR KMQE 300454Z AUTO 26006KT 17/12 A2996 RMK AO1 SLP154 T01720122
402500156





000
SAUS41 KBOX 300355
MTRMQE
METAR KMQE 300354Z AUTO 27008KT 17/12 A2995 RMK AO1 SLP151 T01720122





000
SAUS41 KBOX 300255
MTRMQE
METAR KMQE 300254Z AUTO 28008KT 18/12 A2994 RMK AO1 SLP146 T01780122
51009





000
SAUS41 KBOX 300155
MTRMQE
METAR KMQE 300154Z AUTO 26008KT 18/13 A2993 RMK AO1 SLP144 T01830128





000
SAUS41 KBOX 300055
MTRMQE
METAR KMQE 300054Z AUTO 27006KT 19/13 A2992 RMK AO1 SLP140 T01940133





000
SAUS41 KBOX 292355
MTRMQE
METAR KMQE 292354Z AUTO 27008KT 20/13 A2991 RMK AO1 SLP137 T02000128
10250 20200 51017





000
SAUS41 KBOX 292255
MTRMQE
METAR KMQE 292254Z AUTO 28010KT 21/13 A2990 RMK AO1 SLP133 T02110133





000
SAUS41 KBOX 292155
MTRMQE
METAR KMQE 292154Z AUTO 28010KT 23/13 A2988 RMK AO1 SLP125 T02280133





000
SAUS41 KBOX 292056
MTRMQE
METAR KMQE 292054Z AUTO 28010KT 24/13 A2986 RMK AO1 SLP120 T02390128
53014





000
SAUS41 KBOX 291955
MTRMQE
METAR KMQE 291954Z AUTO 26006KT 23/13 A2985 RMK AO1 SLP115 T02330128





000
SAUS41 KBOX 291855
MTRMQE
METAR KMQE 291854Z AUTO VRB06KT 25/14 A2983 RMK AO1 SLP109 T02500139





000
SAUS41 KBOX 291759
MTRMQE
METAR KMQE 291754Z AUTO 27010KT 23/14 A2982 RMK AO1 SLP104 T02330144
10244 20172 53007





000
SAUS41 KBOX 291655
MTRMQE
METAR KMQE 291654Z AUTO 27008KT 23/14 A2981 RMK AO1 SLP101 T02280144





000
SAUS41 KBOX 291555
MTRMQE
METAR KMQE 291554Z AUTO VRB06KT 23/15 A2980 RMK AO1 SLP099 T02280150





000
SAUS41 KBOX 291455
MTRMQE
METAR KMQE 291454Z AUTO 30008G15KT 22/13 A2980 RMK AO1 SLP097
T02170133 51013





000
SAUS41 KBOX 291355
MTRMQE
METAR KMQE 291354Z AUTO 29007KT 250V320 21/14 A2979 RMK AO1 SLP093
T02060139





000
SAUS41 KBOX 291255
MTRMQE
METAR KMQE 291254Z AUTO 30014G17KT 19/13 A2978 RMK AO1 SLP089
T01890128





000
SAUS41 KBOX 291155
MTRMQE
METAR KMQE 291154Z AUTO 31009G15KT 18/13 A2976 RMK AO1 SLP083 70011
T01780133 10178 20156 53025





000
SAUS41 KBOX 291055
MTRMQE
METAR KMQE 291054Z AUTO 30011KT 16/13 A2973 RMK AO1 SLP074 T01610133





000
SAUS41 KBOX 290955
MTRMQE
METAR KMQE 290954Z AUTO 27011KT 16/14 A2971 RMK AO1 SLP067 T01560139





000
SAUS41 KBOX 290856
MTRMQE
METAR KMQE 290854Z AUTO 27011KT 16/14 A2968 RMK AO1 SLP059 T01560144
53025





000
SAUS41 KBOX 290755
MTRMQE
METAR KMQE 290754Z AUTO 28012KT 16/15 A2965 RMK AO1 SLP046 T01610150





000
SAUS41 KBOX 290655
MTRMQE
METAR KMQE 290654Z AUTO 28013G19KT 17/16 A2963 RMK AO1 SLP039
T01720156





000
SAUS41 KBOX 290555
MTRMQE
METAR KMQE 290554Z AUTO 27010KT 18/17 A2961 RMK AO1 SLP032 T01780167
10244 20178 53016





000
SAUS41 KBOX 290455
MTRMQE
METAR KMQE 290454Z AUTO 25010KT 18/17 A2957 RMK AO1 SLP020 T01830172
402780183





000
SAUS41 KBOX 290355
MTRMQE
METAR KMQE 290354Z AUTO 24010KT 19/17 A2957 RMK AO1 SLP019 T01940172





000
SAUS41 KBOX 290255
MTRMQE
METAR KMQE 290254Z AUTO 24010KT 20/17 A2956 RMK AO1 SLP016 T02000167
51016





000
SAUS41 KBOX 290155
MTRMQE
METAR KMQE 290154Z AUTO 24009G18KT 21/16 A2956 RMK AO1 SLP015
T02060161





000
SAUS41 KBOX 290055
MTRMQE
METAR KMQE 290054Z AUTO 23013G17KT 22/17 A2954 RMK AO1 PK WND
26030/2359 SLP008 T02170167





000
SAUS41 KBOX 282355
MTRMQE
METAR KMQE 282354Z AUTO 23013G22KT 24/17 A2951 RMK AO1 PK WND
22030/2316 SLP998 T02440167 10278 20244 53013





    US Dept of Commerce
    National Oceanic and Atmospheric Administration
    National Weather Service
    1325 East West Highway
    Silver Spring, MD 20910
    Page Author: NWS Internet Services Team
Disclaimer
Information Quality
Credits
Glossary
Privacy Policy
Freedom of Information Act (FOIA)
About Us
Career Opportunities